< < Back
Terminal Aerodrome Forecast


Current Version              Previous Versions:   1  2  3  4  5  6  7  8  9  

Terminal Aerodrome Forecast

276
FTUS42 KFFC 310520
TAFATL
TAF
KATL 310520Z 3106/0112 07008KT 6SM -DZ OVC007
     FM310900 07008KT P6SM OVC005
      TEMPO 3109/3113 5SM BR
     FM311500 05006KT P6SM BKN010
     FM311700 03006KT P6SM BKN025
     FM311900 03006KT P6SM SCT040
     FM010000 VRB03KT P6SM SCT045 SCT250=

Latest METAR

160
SAUS70 KWBC 310900 RRA
MTRATL
METAR KATL 310852Z 07008KT 2SM -DZ BR OVC004 20/18 A3009 RMK AO2 SLP181
P0000 60000 T02000183 56003


USA.gov is the U.S. government's official web portal to all federal, state and local government web resources and services.